Aérodrome :
LOGIN :

S'inscrire | Disclaimer

   EN    FR    IT 

 










Légende :    VFR   VFR Marginal   IFR   IFR Intensif   IFR Très Intensif
Visi : 
Plafond : 
>= 8 km
>= 3000ft
5 à 8 km
1000 à 3000 ft
1500m à 5 km
500 à 1000 ft
800 à 1500m
200 à 500 ft
< 800m
< 200 ft
Symboles :   Orages  Brouillard  Fortes neiges  Fortes précipitations  Vent > 20 kt
SIGMETs :   Divers  Orages  Givrage  Turbulence  Onde Orograph.  Cendres Volcan.







- Altitude de l'aérodrome : 72 ft
- Code IATA : UDE


EHVK - Volkel Airbase

DERNIER METAR :
  • 161525Z AUTO 25012KT 230V290 9999 SCT031 SCT047 BKN054 05/01 Q0993 BLU 28010G20KT 9999 FEW020 SCT025 TEMPO 30015G25KT 3000 SHRAGS SCT015CB BKN020

METARs EXPIRÉS :
  • 161455Z AUTO 26012G24KT 230V310 9999 FEW030/// SCT044/// OVC120/// 06/00 Q0993 BLU 28010G20KT 9999 FEW020 SCT025 TEMPO 30015G25KT 3000 SHRAGS SCT015CB BKN020
  • 161425Z AUTO 27012G23KT 240V310 9999 FEW033 06/00 Q0993 BLU 28010G20KT 9999 FEW020 SCT025 TEMPO 30015G25KT 3000 SHRAGS SCT015CB BKN020
  • 161355Z AUTO 26015KT 230V300 9999 NCD 06/01 Q0993 BLU 28010G20KT 9999 FEW020 SCT025 TEMPO 30015G25KT 3000 SHRAGS SCT015CB BKN020
  • 161334Z AUTO 30006KT 250V330 9999 BKN029 OVC033 05/02 Q0993 BLU 28010G20KT 9999 FEW020 SCT025 TEMPO 30015G25KT 3000 SHRAGS SCT015CB BKN020
  • 161325Z AUTO 28007KT 260V320 9999 FEW035 SCT076 04/01 Q0993 BLU 28010G20KT 9999 FEW020 SCT025 TEMPO 28015G30KT 3000 SHRAGS SCT015CB BKN020
  • 161317Z AUTO 28006KT 260V320 9999 FEW015CB 03/01 Q0993 BLU 28010G20KT 9999 FEW020 SCT025 TEMPO 28015G30KT 3000 SHRAGS SCT015CB BKN020
  • 161259Z AUTO 29009KT 250V340 9999 -RA FEW017/// BKN023/// OVC026/// 03/01 Q0993 WHT
  • 161255Z AUTO 29011G24KT 250V330 9999 -SHRA FEW015CB SCT023 BKN026 03/01 Q0993 RERA WHT
  • 161242Z AUTO 28012G23KT 240V330 9999 RA FEW015CB BKN021 OVC024 03/00 Q0993 WHT
  • 161226Z AUTO 26014KT 230V290 9999 -RA FEW020 BKN031 BKN037 05/02 Q0993 BLU

TAF TAF EHVK
Valide du 16 à 14h jusqu'au 17 à 02h UTC


161318Z 1614/1702 26008KT 9999 SCT020 BKN030
TEMPO 1612/1616 27013G25KT 4000 SHRA SCT010 SCT018CB BKN022
TEMPO 1615/1702 27013G23KT 2500 SHRASN SCT008 SCT015CB BKN020
TEMPO 1701/1702 1000 -SNSH SCT003 SCT012CB BKN020
Pas de NOTAMs connus pour ce terrain.



MET'MAP, la Météo Aéronautique d'un coup d'oeil ! - Copyright ORBIFLY Décembre 2007 - Disclaimer

ORBIFLY MET'MAP TEAM :

Programmation & Développement : Alexandra Zaïnal
Conception & Développement : Baudouin d'Aumeries
Co-Programmation & Développement : Marc-Olivier Méhu
Soutien technique & logistique : Manuel Goepfert

Contact : metmap@orbifly.com




SOURCES & CREDITS :

   NOAA